createdAt,value
2018-10-09T00:02:24.371Z,15.32
2018-10-09T00:04:53.519Z,15.26
2018-10-09T00:07:22.831Z,15.15
2018-10-09T00:09:52.038Z,15.25
2018-10-09T00:12:21.515Z,15.27
2018-10-09T00:14:51.659Z,15.30
2018-10-09T00:17:21.626Z,15.21
2018-10-09T00:19:51.531Z,15.26
2018-10-09T00:22:21.694Z,15.19
2018-10-09T00:24:51.565Z,15.24
2018-10-09T00:27:21.592Z,15.19
2018-10-09T00:29:51.675Z,15.11
2018-10-09T00:32:21.939Z,15.04
2018-10-09T00:34:51.655Z,15.12
2018-10-09T00:37:21.727Z,15.01
2018-10-09T00:39:51.581Z,15.08
2018-10-09T00:42:21.610Z,15.10
2018-10-09T00:44:51.618Z,15.12
2018-10-09T00:47:21.647Z,14.99
2018-10-09T00:49:51.660Z,14.98
2018-10-09T00:52:21.813Z,15.02
2018-10-09T00:54:51.679Z,15.08
2018-10-09T00:57:21.723Z,15.16
2018-10-09T01:00:28.770Z,15.06
2018-10-09T01:02:57.932Z,14.97
2018-10-09T01:05:27.107Z,15.06
2018-10-09T01:07:56.263Z,15.04
2018-10-09T01:10:25.516Z,15.09
2018-10-09T01:12:54.682Z,14.99
2018-10-09T01:15:23.851Z,14.94
2018-10-09T01:17:53.007Z,14.91
2018-10-09T01:20:28.047Z,14.94
2018-10-09T01:22:57.211Z,14.91
2018-10-09T01:25:29.306Z,14.90
2018-10-09T01:27:58.467Z,14.93
2018-10-09T01:30:27.622Z,14.78
2018-10-09T01:32:56.787Z,14.74
2018-10-09T01:35:25.947Z,14.71
2018-10-09T01:37:55.393Z,14.76
2018-10-09T01:40:24.534Z,14.76
2018-10-09T01:42:53.667Z,14.77
2018-10-09T01:45:22.829Z,14.86
2018-10-09T01:47:52.169Z,14.80
2018-10-09T01:50:21.722Z,14.81
2018-10-09T01:52:51.764Z,14.79
2018-10-09T01:55:21.769Z,14.72
2018-10-09T01:57:51.803Z,14.76
2018-10-09T02:00:21.807Z,14.71
2018-10-09T02:02:51.842Z,14.75
2018-10-09T02:05:21.848Z,14.87
2018-10-09T02:07:51.902Z,14.86
2018-10-09T02:10:21.925Z,14.84
2018-10-09T02:12:51.906Z,14.87
2018-10-09T02:15:21.823Z,14.86
2018-10-09T02:17:51.847Z,14.84
2018-10-09T02:20:21.862Z,14.81
2018-10-09T02:22:51.914Z,14.97
2018-10-09T02:25:22.027Z,14.95
2018-10-09T02:27:51.987Z,14.92
2018-10-09T02:30:21.869Z,14.99
2018-10-09T02:32:51.036Z,14.87
2018-10-09T02:35:20.175Z,14.88
2018-10-09T02:37:49.349Z,14.97
2018-10-09T02:40:18.589Z,14.98
2018-10-09T02:42:47.742Z,15.01
2018-10-09T02:45:16.937Z,14.90
2018-10-09T02:47:46.110Z,14.93
2018-10-09T02:50:15.267Z,14.88
2018-10-09T02:52:44.432Z,14.86
2018-10-09T02:55:13.595Z,14.73
2018-10-09T02:57:42.745Z,14.63
2018-10-09T03:00:11.896Z,14.73
2018-10-09T03:02:41.055Z,14.59
2018-10-09T03:05:10.215Z,14.53
2018-10-09T03:07:39.375Z,14.56
2018-10-09T03:10:08.675Z,14.58
2018-10-09T03:12:37.896Z,14.47
2018-10-09T03:15:07.227Z,14.35
2018-10-09T03:17:36.382Z,14.40
2018-10-09T03:20:05.527Z,14.33
2018-10-09T03:22:34.710Z,14.37
2018-10-09T03:25:03.842Z,14.35
2018-10-09T03:27:33.197Z,14.34
2018-10-09T03:30:02.347Z,14.30
2018-10-09T03:32:31.842Z,14.30
2018-10-09T03:35:01.171Z,14.36
2018-10-09T03:37:30.346Z,14.27
2018-10-09T03:39:59.494Z,14.30
2018-10-09T03:42:30.043Z,14.20
2018-10-09T03:44:59.202Z,14.18
2018-10-09T03:47:28.340Z,14.13
2018-10-09T03:49:57.498Z,14.17
2018-10-09T03:52:26.649Z,14.11
2018-10-09T03:54:55.789Z,14.09
2018-10-09T03:57:25.000Z,14.13
2018-10-09T03:59:55.027Z,14.17
2018-10-09T04:02:24.963Z,14.11
2018-10-09T04:04:54.118Z,14.13
2018-10-09T04:07:23.282Z,14.10
2018-10-09T04:09:52.446Z,14.10
2018-10-09T04:12:22.670Z,14.01
2018-10-09T04:14:51.836Z,14.07
2018-10-09T04:17:20.982Z,13.85
2018-10-09T04:19:50.130Z,13.81
2018-10-09T04:22:21.792Z,13.82
2018-10-09T04:24:50.954Z,13.77
2018-10-09T04:27:20.470Z,13.86
2018-10-09T04:29:49.622Z,13.89
2018-10-09T04:32:18.821Z,13.92
2018-10-09T04:34:47.989Z,13.66
2018-10-09T04:37:17.132Z,13.85
2018-10-09T04:39:46.619Z,13.92
2018-10-09T04:42:15.782Z,13.98
2018-10-09T04:44:45.018Z,13.97
2018-10-09T04:47:14.165Z,13.92
2018-10-09T04:49:43.354Z,13.87
2018-10-09T04:52:12.507Z,13.82
2018-10-09T04:54:41.718Z,13.82
2018-10-09T04:57:10.854Z,13.80
2018-10-09T04:59:40.109Z,13.84
2018-10-09T05:02:09.251Z,13.74
2018-10-09T05:04:38.410Z,13.76
2018-10-09T05:07:07.578Z,13.68
2018-10-09T05:09:36.803Z,13.64
2018-10-09T05:12:05.957Z,13.75
2018-10-09T05:14:35.138Z,13.71
2018-10-09T05:17:04.265Z,13.69
2018-10-09T05:19:33.595Z,13.76
2018-10-09T05:22:02.723Z,13.84
2018-10-09T05:24:31.879Z,13.79
2018-10-09T05:27:01.099Z,13.70
2018-10-09T05:29:30.273Z,13.69
2018-10-09T05:31:59.395Z,13.71
2018-10-09T05:34:28.553Z,13.71
2018-10-09T05:36:57.771Z,13.68
2018-10-09T05:39:26.980Z,13.82
2018-10-09T05:41:56.591Z,13.81
2018-10-09T05:44:25.954Z,13.69
2018-10-09T05:46:55.410Z,13.89
2018-10-09T05:49:25.426Z,13.80
2018-10-09T05:51:55.319Z,13.87
2018-10-09T05:54:25.290Z,13.86
2018-10-09T05:56:55.337Z,13.84
2018-10-09T05:59:25.336Z,13.97
2018-10-09T06:01:55.335Z,13.99
2018-10-09T06:04:25.406Z,14.09
2018-10-09T06:06:55.470Z,14.11
2018-10-09T06:09:26.240Z,14.08
2018-10-09T06:11:55.390Z,14.15
2018-10-09T06:14:25.407Z,14.07
2018-10-09T06:16:55.329Z,14.18
2018-10-09T06:19:25.337Z,14.13
2018-10-09T06:21:55.343Z,14.14
2018-10-09T06:24:25.383Z,14.10
2018-10-09T06:26:55.411Z,14.20
2018-10-09T06:29:25.626Z,14.28
2018-10-09T06:31:55.419Z,14.18
2018-10-09T06:34:25.495Z,14.17
2018-10-09T06:36:56.386Z,14.19
2018-10-09T06:39:25.522Z,14.27
2018-10-09T06:41:55.452Z,14.32
2018-10-09T06:44:25.430Z,14.41
2018-10-09T06:46:55.477Z,14.41
2018-10-09T06:49:25.388Z,14.40
2018-10-09T06:51:55.478Z,14.31
2018-10-09T06:54:25.771Z,14.40
2018-10-09T06:56:55.522Z,14.59
2018-10-09T06:59:25.538Z,14.56
2018-10-09T07:01:55.511Z,14.58
2018-10-09T07:04:25.602Z,14.69
2018-10-09T07:06:55.838Z,14.63
2018-10-09T07:09:25.573Z,14.73
2018-10-09T07:11:55.544Z,14.74
2018-10-09T07:14:25.671Z,14.85
2018-10-09T07:16:55.760Z,14.85
2018-10-09T07:19:25.570Z,14.89
2018-10-09T07:21:55.582Z,14.97
2018-10-09T07:24:25.587Z,14.98
2018-10-09T07:26:55.626Z,14.98
2018-10-09T07:29:25.650Z,15.04
2018-10-09T07:31:55.747Z,15.11
2018-10-09T07:34:25.685Z,15.10
2018-10-09T07:36:55.682Z,15.14
2018-10-09T07:39:25.679Z,15.30
2018-10-09T07:41:55.675Z,15.31
2018-10-09T07:44:25.719Z,15.43
2018-10-09T07:46:55.739Z,15.50
2018-10-09T07:49:25.683Z,15.55
2018-10-09T07:51:55.738Z,15.59
2018-10-09T07:54:25.693Z,15.65
2018-10-09T07:56:55.613Z,15.72
2018-10-09T07:59:25.727Z,15.71
2018-10-09T08:01:55.767Z,15.84
2018-10-09T08:04:25.744Z,15.83
2018-10-09T08:06:55.705Z,15.89
2018-10-09T08:09:25.655Z,16.03
2018-10-09T08:11:55.727Z,16.17
2018-10-09T08:14:25.752Z,16.20
2018-10-09T08:16:55.795Z,16.21
2018-10-09T08:19:25.766Z,16.32
2018-10-09T08:21:55.806Z,16.34
2018-10-09T08:24:25.749Z,16.41
2018-10-09T08:26:55.721Z,16.51
2018-10-09T08:29:25.745Z,16.64
2018-10-09T08:31:55.903Z,16.68
2018-10-09T08:34:25.774Z,16.78
2018-10-09T08:36:55.818Z,16.84
2018-10-09T08:39:25.917Z,16.88
2018-10-09T08:41:55.834Z,16.94
2018-10-09T08:44:25.830Z,17.00
2018-10-09T08:46:55.986Z,17.12
2018-10-09T08:49:25.766Z,17.20
2018-10-09T08:51:55.810Z,17.21
2018-10-09T08:54:25.815Z,17.30
2018-10-09T08:56:55.830Z,17.33
2018-10-09T08:59:25.878Z,17.44
2018-10-09T09:01:55.829Z,17.58
2018-10-09T09:04:25.866Z,17.63
2018-10-09T09:06:55.901Z,17.70
2018-10-09T09:09:25.836Z,17.83
2018-10-09T09:11:55.961Z,17.92
2018-10-09T09:14:25.846Z,18.00
2018-10-09T09:16:55.919Z,18.09
2018-10-09T09:19:25.887Z,18.16
2018-10-09T09:21:55.943Z,18.18
2018-10-09T09:24:25.962Z,18.30
2018-10-09T09:26:56.031Z,18.44
2018-10-09T09:29:25.938Z,18.60
2018-10-09T09:31:56.031Z,18.69
2018-10-09T09:34:25.987Z,18.79
2018-10-09T09:36:55.961Z,18.88
2018-10-09T09:39:25.964Z,18.97
2018-10-09T09:41:55.930Z,19.14
2018-10-09T09:44:25.890Z,19.25
2018-10-09T09:46:55.966Z,19.32
2018-10-09T09:49:26.088Z,19.37
2018-10-09T09:51:56.050Z,19.42
2018-10-09T09:54:26.017Z,19.48
2018-10-09T09:56:56.236Z,19.64
2018-10-09T09:59:26.138Z,19.72
2018-10-09T10:01:56.141Z,19.82
2018-10-09T10:04:25.307Z,19.92
2018-10-09T10:06:54.473Z,20.01
2018-10-09T10:09:23.781Z,20.11
2018-10-09T10:11:52.891Z,20.11
2018-10-09T10:14:22.158Z,20.19
2018-10-09T10:16:51.470Z,20.23
2018-10-09T10:19:20.678Z,20.23
2018-10-09T10:21:50.622Z,20.18
2018-10-09T10:24:19.766Z,20.36
2018-10-09T10:26:48.934Z,20.43
2018-10-09T10:29:18.184Z,20.55
2018-10-09T10:31:47.419Z,20.66
2018-10-09T10:34:16.727Z,20.73
2018-10-09T10:36:46.007Z,20.84
2018-10-09T10:39:15.123Z,21.05
2018-10-09T10:41:44.431Z,21.20
2018-10-09T10:44:13.591Z,21.31
2018-10-09T10:46:43.025Z,21.49
2018-10-09T10:49:13.541Z,21.62
2018-10-09T10:51:42.722Z,21.65
2018-10-09T10:54:11.879Z,21.82
2018-10-09T10:56:41.031Z,21.83
2018-10-09T10:59:10.189Z,21.88
2018-10-09T11:01:39.355Z,21.91
2018-10-09T11:04:09.558Z,22.01
2018-10-09T11:06:38.702Z,22.03
2018-10-09T11:09:10.308Z,21.99
2018-10-09T11:11:39.449Z,22.12
2018-10-09T11:14:08.657Z,22.07
2018-10-09T11:16:37.805Z,22.05
2018-10-09T11:19:06.954Z,22.21
2018-10-09T11:21:36.164Z,22.26
2018-10-09T11:24:05.389Z,22.28
2018-10-09T11:26:34.527Z,22.38
2018-10-09T11:29:03.762Z,22.34
2018-10-09T11:31:32.914Z,22.38
2018-10-09T11:34:02.057Z,22.47
2018-10-09T11:36:31.598Z,22.61
2018-10-09T11:39:00.742Z,22.56
2018-10-09T11:41:31.118Z,22.62
2018-10-09T11:44:00.338Z,22.62
2018-10-09T11:46:30.016Z,22.71
2018-10-09T11:48:59.178Z,22.74
2018-10-09T11:51:29.298Z,22.68
2018-10-09T11:53:58.799Z,22.71
2018-10-09T11:56:28.782Z,22.77
2018-10-09T11:58:58.904Z,22.73
2018-10-09T12:01:28.814Z,22.73
2018-10-09T12:03:57.981Z,22.80
2018-10-09T12:06:27.183Z,22.73
2018-10-09T12:08:56.356Z,22.84
2018-10-09T12:11:25.502Z,22.74
2018-10-09T12:13:54.663Z,22.79
2018-10-09T12:16:23.853Z,22.78
2018-10-09T12:18:53.070Z,22.80
2018-10-09T12:21:22.279Z,22.89
2018-10-09T12:23:51.428Z,22.77
2018-10-09T12:26:20.571Z,22.79
2018-10-09T12:28:49.719Z,22.81
2018-10-09T12:31:18.876Z,22.71
2018-10-09T12:33:48.027Z,22.74
2018-10-09T12:36:17.178Z,22.70
2018-10-09T12:38:46.329Z,22.75
2018-10-09T12:41:15.481Z,22.97
2018-10-09T12:43:44.654Z,22.88
2018-10-09T12:46:13.786Z,22.77
2018-10-09T12:48:42.935Z,22.89
2018-10-09T12:51:12.070Z,22.80
2018-10-09T12:53:41.206Z,22.80
2018-10-09T12:56:10.339Z,22.85
2018-10-09T12:58:39.544Z,22.90
2018-10-09T13:01:08.743Z,22.81
2018-10-09T13:03:37.927Z,22.76
2018-10-09T13:06:07.075Z,22.80
2018-10-09T13:08:36.694Z,22.83
2018-10-09T13:11:06.024Z,23.01
2018-10-09T13:13:35.186Z,22.91
2018-10-09T13:16:04.411Z,22.97
2018-10-09T13:18:33.561Z,22.95
2018-10-09T13:21:02.847Z,22.88
2018-10-09T13:23:31.861Z,22.85
2018-10-09T13:26:01.023Z,23.07
2018-10-09T13:28:30.179Z,22.93
2018-10-09T13:30:59.441Z,22.91
2018-10-09T13:33:29.016Z,22.91
2018-10-09T13:35:59.039Z,22.88
2018-10-09T13:38:29.062Z,22.89
2018-10-09T13:40:59.041Z,22.86
2018-10-09T13:43:29.157Z,22.90
2018-10-09T13:45:59.059Z,22.81
2018-10-09T13:48:29.171Z,22.81
2018-10-09T13:50:59.421Z,22.84
2018-10-09T13:53:29.075Z,22.85
2018-10-09T13:55:59.111Z,22.77
2018-10-09T13:58:29.934Z,22.67
2018-10-09T14:00:59.134Z,22.56
2018-10-09T14:03:29.080Z,22.47
2018-10-09T14:05:59.155Z,22.46
2018-10-09T14:08:29.178Z,22.39
2018-10-09T14:10:59.126Z,22.42
2018-10-09T14:13:29.225Z,22.40
2018-10-09T14:15:59.207Z,22.41
2018-10-09T14:18:29.142Z,22.42
2018-10-09T14:20:59.240Z,22.35
2018-10-09T14:23:29.271Z,22.34
2018-10-09T14:25:59.163Z,22.39
2018-10-09T14:28:29.127Z,22.47
2018-10-09T14:30:59.247Z,22.54
2018-10-09T14:33:29.344Z,22.58
2018-10-09T14:35:59.185Z,22.67
2018-10-09T14:38:29.200Z,22.65
2018-10-09T14:40:59.343Z,22.54
2018-10-09T14:43:29.311Z,22.48
2018-10-09T14:45:59.255Z,22.47
2018-10-09T14:48:29.279Z,22.45
2018-10-09T14:50:59.285Z,22.43
2018-10-09T14:53:29.236Z,22.42
2018-10-09T14:55:59.306Z,22.40
2018-10-09T14:58:29.343Z,22.39
2018-10-09T15:00:59.238Z,22.34
2018-10-09T15:03:31.654Z,22.28
2018-10-09T15:06:00.802Z,22.19
2018-10-09T15:08:29.934Z,22.21
2018-10-09T15:11:00.294Z,22.24
2018-10-09T15:13:29.443Z,22.18
2018-10-09T15:15:59.469Z,22.07
2018-10-09T15:18:30.306Z,22.09
2018-10-09T15:20:59.458Z,22.10
2018-10-09T15:23:29.295Z,22.09
2018-10-09T15:25:59.329Z,22.09
2018-10-09T15:28:29.323Z,22.07
2018-10-09T15:30:59.610Z,22.08
2018-10-09T15:33:29.267Z,22.06
2018-10-09T15:35:59.295Z,22.05
2018-10-09T15:38:29.317Z,22.03
2018-10-09T15:40:59.340Z,22.00
2018-10-09T15:43:29.511Z,21.98
2018-10-09T15:45:59.372Z,21.97
2018-10-09T15:48:29.372Z,21.96
2018-10-09T15:50:58.725Z,21.92
2018-10-09T15:53:27.931Z,21.87
2018-10-09T15:55:57.088Z,21.81
2018-10-09T15:58:26.311Z,21.80
2018-10-09T16:00:55.555Z,21.79
2018-10-09T16:03:24.748Z,21.73
2018-10-09T16:05:53.930Z,21.70
2018-10-09T16:08:23.065Z,21.69
2018-10-09T16:10:52.219Z,21.66
2018-10-09T16:13:21.362Z,21.63
2018-10-09T16:15:50.843Z,21.57
2018-10-09T16:18:19.991Z,21.56
2018-10-09T16:20:49.193Z,21.51
2018-10-09T16:23:18.307Z,21.47
2018-10-09T16:25:47.580Z,21.41
2018-10-09T16:28:16.789Z,21.36
2018-10-09T16:30:45.975Z,21.31
2018-10-09T16:33:15.101Z,21.32
2018-10-09T16:35:44.467Z,21.23
2018-10-09T16:38:13.653Z,21.17
2018-10-09T16:40:43.059Z,21.15
2018-10-09T16:43:12.230Z,21.08
2018-10-09T16:45:41.384Z,21.13
2018-10-09T16:48:10.660Z,21.12
2018-10-09T16:50:39.831Z,21.08
2018-10-09T16:53:09.772Z,21.07
2018-10-09T16:55:38.894Z,21.05
2018-10-09T16:58:08.194Z,20.99
2018-10-09T17:00:37.342Z,20.95
2018-10-09T17:03:06.679Z,20.92
2018-10-09T17:05:35.983Z,20.81
2018-10-09T17:08:05.171Z,20.79
2018-10-09T17:10:34.366Z,20.77
2018-10-09T17:13:03.523Z,20.75
2018-10-09T17:15:33.080Z,20.75
2018-10-09T17:18:02.487Z,20.73
2018-10-09T17:20:32.249Z,20.72
2018-10-09T17:23:02.434Z,20.67
2018-10-09T17:25:32.324Z,20.58
2018-10-09T17:28:02.462Z,20.46
2018-10-09T17:30:32.366Z,20.41
2018-10-09T17:33:01.560Z,20.33
2018-10-09T17:35:30.658Z,20.32
2018-10-09T17:37:59.809Z,20.20
2018-10-09T17:40:29.636Z,20.22
2018-10-09T17:42:59.655Z,20.23
2018-10-09T17:45:29.580Z,20.22
2018-10-09T17:47:59.574Z,20.21
2018-10-09T17:50:29.620Z,20.19
2018-10-09T17:52:59.627Z,20.12
2018-10-09T17:55:29.783Z,20.05
2018-10-09T17:58:00.568Z,20.02
2018-10-09T18:00:29.783Z,19.91
2018-10-09T18:03:00.237Z,19.81
2018-10-09T18:05:30.582Z,19.76
2018-10-09T18:08:00.487Z,19.73
2018-10-09T18:10:30.459Z,19.71
2018-10-09T18:13:00.470Z,19.74
2018-10-09T18:15:30.503Z,19.63
2018-10-09T18:18:00.567Z,19.57
2018-10-09T18:20:30.598Z,19.54
2018-10-09T18:23:00.441Z,19.43
2018-10-09T18:25:29.583Z,19.46
2018-10-09T18:27:58.738Z,19.39
2018-10-09T18:30:27.895Z,19.30
2018-10-09T18:32:57.261Z,19.19
2018-10-09T18:35:26.191Z,19.24
2018-10-09T18:37:55.334Z,19.19
2018-10-09T18:40:24.508Z,19.21
2018-10-09T18:42:53.655Z,19.12
2018-10-09T18:45:22.851Z,19.00
2018-10-09T18:47:52.015Z,19.00
2018-10-09T18:50:21.146Z,18.94
2018-10-09T18:52:50.495Z,18.91
2018-10-09T18:55:19.638Z,18.90
2018-10-09T18:57:48.866Z,18.92
2018-10-09T19:00:18.050Z,18.79
2018-10-09T19:02:47.194Z,18.85
2018-10-09T19:05:16.355Z,18.90
2018-10-09T19:07:45.519Z,18.81
2018-10-09T19:10:14.778Z,18.81
2018-10-09T19:12:43.911Z,18.75
2018-10-09T19:15:13.067Z,18.65
2018-10-09T19:17:42.256Z,18.67
2018-10-09T19:20:11.464Z,18.65
2018-10-09T19:22:40.666Z,18.48
2018-10-09T19:25:10.003Z,18.41
2018-10-09T19:27:39.174Z,18.27
2018-10-09T19:30:09.174Z,18.16
2018-10-09T19:32:38.458Z,18.15
2018-10-09T19:35:07.675Z,18.07
2018-10-09T19:37:36.823Z,18.09
2018-10-09T19:40:06.150Z,18.07
2018-10-09T19:42:35.299Z,18.08
2018-10-09T19:45:04.568Z,18.15
2018-10-09T19:47:36.198Z,18.15
2018-10-09T19:50:06.938Z,18.13
2018-10-09T19:52:36.661Z,18.11
2018-10-09T19:55:06.062Z,18.06
2018-10-09T19:57:35.204Z,18.06
2018-10-09T20:00:04.656Z,18.01
2018-10-09T20:02:33.873Z,17.98
2018-10-09T20:05:03.832Z,17.94
2018-10-09T20:07:33.932Z,17.93
2018-10-09T20:10:03.842Z,17.91
2018-10-09T20:12:33.851Z,17.94
2018-10-09T20:15:03.028Z,17.94
2018-10-09T20:17:32.639Z,17.92
2018-10-09T20:20:01.817Z,17.81
2018-10-09T20:22:30.965Z,17.69
2018-10-09T20:25:00.840Z,17.70
2018-10-09T20:27:30.035Z,17.66
2018-10-09T20:29:59.196Z,17.65
2018-10-09T20:32:28.335Z,17.68
2018-10-09T20:34:57.483Z,17.67
2018-10-09T20:37:26.862Z,17.59
2018-10-09T20:39:56.084Z,17.68
2018-10-09T20:42:27.603Z,17.59
2018-10-09T20:44:56.767Z,17.52
2018-10-09T20:47:31.362Z,17.55
2018-10-09T20:50:00.821Z,17.53
2018-10-09T20:52:29.975Z,17.42
2018-10-09T20:54:59.335Z,17.39
2018-10-09T20:57:28.531Z,17.35
2018-10-09T20:59:57.702Z,17.31
2018-10-09T21:02:26.854Z,17.31
2018-10-09T21:04:56.054Z,17.28
2018-10-09T21:07:25.329Z,17.23
2018-10-09T21:09:54.484Z,17.17
2018-10-09T21:12:23.791Z,17.15
2018-10-09T21:14:52.938Z,17.13
2018-10-09T21:17:22.086Z,17.07
2018-10-09T21:19:51.206Z,17.10
2018-10-09T21:22:20.366Z,17.04
2018-10-09T21:24:49.827Z,17.05
2018-10-09T21:27:18.987Z,17.07
2018-10-09T21:29:48.210Z,17.02
2018-10-09T21:32:17.317Z,17.07
2018-10-09T21:34:46.475Z,17.00
2018-10-09T21:37:15.614Z,16.96
2018-10-09T21:39:44.758Z,16.93
2018-10-09T21:42:13.903Z,16.92
2018-10-09T21:44:43.072Z,16.88
2018-10-09T21:47:12.276Z,16.94
2018-10-09T21:49:42.058Z,16.99
2018-10-09T21:52:11.231Z,16.95
2018-10-09T21:54:40.484Z,16.93
2018-10-09T21:57:09.683Z,16.89
2018-10-09T21:59:39.394Z,16.78
2018-10-09T22:02:09.239Z,16.77
2018-10-09T22:04:39.422Z,16.75
2018-10-09T22:07:11.983Z,16.70
2018-10-09T22:09:41.146Z,16.68
2018-10-09T22:12:10.331Z,16.70
2018-10-09T22:14:39.599Z,16.68
2018-10-09T22:17:09.534Z,16.60
2018-10-09T22:19:39.242Z,16.51
2018-10-09T22:22:09.275Z,16.56
2018-10-09T22:24:39.518Z,16.56
2018-10-09T22:27:09.395Z,16.43
2018-10-09T22:29:39.561Z,16.54
2018-10-09T22:32:09.387Z,16.53
2018-10-09T22:34:39.396Z,16.47
2018-10-09T22:37:09.268Z,16.36
2018-10-09T22:39:39.387Z,16.26
2018-10-09T22:42:09.395Z,16.04
2018-10-09T22:44:39.351Z,15.96
2018-10-09T22:47:09.336Z,15.98
2018-10-09T22:49:39.350Z,16.00
2018-10-09T22:52:09.451Z,15.95
2018-10-09T22:54:39.408Z,15.89
2018-10-09T22:57:09.322Z,15.97
2018-10-09T22:59:39.330Z,15.93
2018-10-09T23:02:09.306Z,15.83
2018-10-09T23:04:39.339Z,15.88
2018-10-09T23:07:09.310Z,15.88
2018-10-09T23:09:39.480Z,15.73
2018-10-09T23:12:09.572Z,15.50
2018-10-09T23:14:39.411Z,15.49
2018-10-09T23:17:09.659Z,15.47
2018-10-09T23:19:39.438Z,15.38
2018-10-09T23:22:09.527Z,15.48
2018-10-09T23:24:39.568Z,15.40
2018-10-09T23:27:09.502Z,15.32
2018-10-09T23:29:39.428Z,15.21
2018-10-09T23:32:09.439Z,15.27
2018-10-09T23:34:39.464Z,15.35
2018-10-09T23:37:09.751Z,15.38
2018-10-09T23:39:39.614Z,15.30
2018-10-09T23:42:09.677Z,15.27
2018-10-09T23:44:43.525Z,15.32
2018-10-09T23:47:12.696Z,15.32
2018-10-09T23:49:41.860Z,15.18
2018-10-09T23:52:11.010Z,15.12
2018-10-09T23:54:40.165Z,15.10
2018-10-09T23:57:09.727Z,15.07
2018-10-09T23:59:39.891Z,15.05
